sensor_id;sensor_type;location;lat;lon;timestamp;pressure;altitude;pressure_sealevel;temperature;humidity
19795;BME280;10057;59.402;17.866;2022-09-23T00:01:09;101592.31;;;12.23;73.60
19795;BME280;10057;59.402;17.866;2022-09-23T00:03:40;101587.84;;;12.25;73.43
19795;BME280;10057;59.402;17.866;2022-09-23T00:06:10;101582.44;;;12.28;73.61
19795;BME280;10057;59.402;17.866;2022-09-23T00:08:38;101581.59;;;12.26;73.39
19795;BME280;10057;59.402;17.866;2022-09-23T00:11:13;101592.09;;;12.30;73.61
19795;BME280;10057;59.402;17.866;2022-09-23T00:13:46;101589.41;;;12.30;73.45
19795;BME280;10057;59.402;17.866;2022-09-23T00:16:26;101582.34;;;12.31;73.60
19795;BME280;10057;59.402;17.866;2022-09-23T00:18:53;101587.66;;;12.31;73.42
19795;BME280;10057;59.402;17.866;2022-09-23T00:21:23;101592.06;;;12.32;73.31
19795;BME280;10057;59.402;17.866;2022-09-23T00:23:50;101585.78;;;12.35;73.17
19795;BME280;10057;59.402;17.866;2022-09-23T00:26:19;101577.78;;;12.35;73.27
19795;BME280;10057;59.402;17.866;2022-09-23T00:28:47;101581.25;;;12.37;73.40
19795;BME280;10057;59.402;17.866;2022-09-23T00:31:19;101575.94;;;12.37;73.18
19795;BME280;10057;59.402;17.866;2022-09-23T00:33:57;101575.13;;;12.35;73.16
19795;BME280;10057;59.402;17.866;2022-09-23T00:36:24;101575.13;;;12.35;73.22
19795;BME280;10057;59.402;17.866;2022-09-23T00:38:52;101576.00;;;12.35;73.26
19795;BME280;10057;59.402;17.866;2022-09-23T00:41:22;101575.13;;;12.35;73.51
19795;BME280;10057;59.402;17.866;2022-09-23T00:43:53;101574.22;;;12.34;73.55
19795;BME280;10057;59.402;17.866;2022-09-23T00:46:36;101567.19;;;12.33;73.50
19795;BME280;10057;59.402;17.866;2022-09-23T00:49:43;101559.28;;;12.30;73.30
19795;BME280;10057;59.402;17.866;2022-09-23T00:52:10;101572.47;;;12.35;73.20
19795;BME280;10057;59.402;17.866;2022-09-23T00:54:38;101566.31;;;12.32;73.31
19795;BME280;10057;59.402;17.866;2022-09-23T00:57:09;101565.44;;;12.32;73.35
19795;BME280;10057;59.402;17.866;2022-09-23T00:59:38;101571.72;;;12.29;73.57
19795;BME280;10057;59.402;17.866;2022-09-23T01:02:05;101566.41;;;12.29;73.51
19795;BME280;10057;59.402;17.866;2022-09-23T01:04:33;101562.94;;;12.27;73.57
19795;BME280;10057;59.402;17.866;2022-09-23T01:07:00;101555.84;;;12.26;73.59
19795;BME280;10057;59.402;17.866;2022-09-23T01:09:27;101556.78;;;12.25;73.64
19795;BME280;10057;59.402;17.866;2022-09-23T01:18:04;101553.38;;;12.20;73.80
19795;BME280;10057;59.402;17.866;2022-09-23T01:26:50;101553.72;;;12.09;74.02
19795;BME280;10057;59.402;17.866;2022-09-23T01:32:37;101544.06;;;12.07;73.87
19795;BME280;10057;59.402;17.866;2022-09-23T01:41:06;101551.28;;;12.02;73.90
19795;BME280;10057;59.402;17.866;2022-09-23T01:46:28;101546.94;;;11.99;74.25
19795;BME280;10057;59.402;17.866;2022-09-23T01:49:10;101546.94;;;11.99;74.25
19795;BME280;10057;59.402;17.866;2022-09-23T01:51:45;101545.19;;;11.98;74.15
19795;BME280;10057;59.402;17.866;2022-09-23T01:54:18;101543.38;;;12.00;74.39
19795;BME280;10057;59.402;17.866;2022-09-23T01:56:53;101541.59;;;12.01;74.35
19795;BME280;10057;59.402;17.866;2022-09-23T02:01:57;101542.38;;;12.03;74.48
19795;BME280;10057;59.402;17.866;2022-09-23T02:04:34;101535.31;;;12.03;74.50
19795;BME280;10057;59.402;17.866;2022-09-23T02:10:21;101544.16;;;12.04;74.58
19795;BME280;10057;59.402;17.866;2022-09-23T02:12:53;101536.28;;;12.01;74.74
19795;BME280;10057;59.402;17.866;2022-09-23T02:15:38;101535.44;;;11.99;75.00
19795;BME280;10057;59.402;17.866;2022-09-23T02:18:14;101544.34;;;11.98;74.92
19795;BME280;10057;59.402;17.866;2022-09-23T02:20:42;101537.28;;;11.97;75.07
19795;BME280;10057;59.402;17.866;2022-09-23T02:23:18;101533.78;;;11.95;74.99
19795;BME280;10057;59.402;17.866;2022-09-23T02:26:08;101527.69;;;11.91;75.11
19795;BME280;10057;59.402;17.866;2022-09-23T02:29:48;101534.84;;;11.89;75.26
19795;BME280;10057;59.402;17.866;2022-09-23T02:34:29;101525.19;;;11.87;75.33
19795;BME280;10057;59.402;17.866;2022-09-23T02:37:24;101521.59;;;11.88;75.30
19795;BME280;10057;59.402;17.866;2022-09-23T02:39:57;101527.88;;;11.85;75.39
19795;BME280;10057;59.402;17.866;2022-09-23T02:45:18;101524.47;;;11.80;75.46
19795;BME280;10057;59.402;17.866;2022-09-23T02:47:47;101518.25;;;11.79;75.42
19795;BME280;10057;59.402;17.866;2022-09-23T02:50:15;101524.47;;;11.80;75.26
19795;BME280;10057;59.402;17.866;2022-09-23T02:52:45;101514.81;;;11.76;75.42
19795;BME280;10057;59.402;17.866;2022-09-23T02:55:15;101517.47;;;11.76;75.37
19795;BME280;10057;59.402;17.866;2022-09-23T02:57:42;101526.38;;;11.75;75.51
19795;BME280;10057;59.402;17.866;2022-09-23T03:00:10;101508.78;;;11.71;75.71
19795;BME280;10057;59.402;17.866;2022-09-23T03:02:52;101515.81;;;11.72;75.46
19795;BME280;10057;59.402;17.866;2022-09-23T03:05:27;101507.81;;;11.73;75.63
19795;BME280;10057;59.402;17.866;2022-09-23T03:08:37;101499.84;;;11.73;75.70
19795;BME280;10057;59.402;17.866;2022-09-23T03:11:09;101506.97;;;11.73;75.82
19795;BME280;10057;59.402;17.866;2022-09-23T03:17:04;101502.53;;;11.72;75.92
19795;BME280;10057;59.402;17.866;2022-09-23T03:19:47;101497.28;;;11.70;75.81
19795;BME280;10057;59.402;17.866;2022-09-23T03:22:33;101491.13;;;11.68;75.96
19795;BME280;10057;59.402;17.866;2022-09-23T03:25:14;101493.78;;;11.68;75.88
19795;BME280;10057;59.402;17.866;2022-09-23T03:27:42;101492.97;;;11.66;76.05
19795;BME280;10057;59.402;17.866;2022-09-23T03:30:09;101488.56;;;11.65;76.25
19795;BME280;10057;59.402;17.866;2022-09-23T03:32:37;101492.13;;;11.64;75.96
19795;BME280;10057;59.402;17.866;2022-09-23T03:35:05;101490.41;;;11.63;76.06
19795;BME280;10057;59.402;17.866;2022-09-23T03:37:51;101486.91;;;11.61;76.13
19795;BME280;10057;59.402;17.866;2022-09-23T03:40:31;101484.22;;;11.62;76.13
19795;BME280;10057;59.402;17.866;2022-09-23T03:43:01;101484.16;;;11.64;75.96
19795;BME280;10057;59.402;17.866;2022-09-23T03:45:31;101481.56;;;11.62;75.98
19795;BME280;10057;59.402;17.866;2022-09-23T03:47:59;101478.13;;;11.59;75.99
19795;BME280;10057;59.402;17.866;2022-09-23T03:50:26;101483.47;;;11.57;75.76
19795;BME280;10057;59.402;17.866;2022-09-23T03:52:53;101476.53;;;11.52;75.81
19795;BME280;10057;59.402;17.866;2022-09-23T03:55:19;101476.59;;;11.50;76.09
19795;BME280;10057;59.402;17.866;2022-09-23T03:57:46;101474.88;;;11.49;76.35
19795;BME280;10057;59.402;17.866;2022-09-23T04:00:14;101478.41;;;11.50;76.25
19795;BME280;10057;59.402;17.866;2022-09-23T04:02:41;101470.44;;;11.48;75.96
19795;BME280;10057;59.402;17.866;2022-09-23T04:05:09;101467.84;;;11.47;76.24
19795;BME280;10057;59.402;17.866;2022-09-23T04:07:37;101473.25;;;11.44;76.23
19795;BME280;10057;59.402;17.866;2022-09-23T04:10:04;101462.69;;;11.42;76.54
19795;BME280;10057;59.402;17.866;2022-09-23T04:12:31;101464.44;;;11.42;76.34
19795;BME280;10057;59.402;17.866;2022-09-23T04:14:58;101467.16;;;11.40;76.44
19795;BME280;10057;59.402;17.866;2022-09-23T04:17:25;101465.38;;;11.41;76.58
19795;BME280;10057;59.402;17.866;2022-09-23T04:19:52;101453.00;;;11.39;76.44
19795;BME280;10057;59.402;17.866;2022-09-23T04:22:18;101462.72;;;11.41;76.62
19795;BME280;10057;59.402;17.866;2022-09-23T04:24:45;101458.31;;;11.39;76.66
19795;BME280;10057;59.402;17.866;2022-09-23T04:27:12;101453.88;;;11.40;76.74
19795;BME280;10057;59.402;17.866;2022-09-23T04:29:38;101458.31;;;11.39;76.75
19795;BME280;10057;59.402;17.866;2022-09-23T04:32:05;101457.41;;;11.41;76.79
19795;BME280;10057;59.402;17.866;2022-09-23T04:34:32;101456.59;;;11.38;76.88
19795;BME280;10057;59.402;17.866;2022-09-23T04:36:58;101468.09;;;11.37;76.83
19795;BME280;10057;59.402;17.866;2022-09-23T04:39:25;101471.69;;;11.36;77.06
19795;BME280;10057;59.402;17.866;2022-09-23T04:41:52;101469.06;;;11.35;76.72
19795;BME280;10057;59.402;17.866;2022-09-23T04:44:18;101475.38;;;11.31;77.13
19795;BME280;10057;59.402;17.866;2022-09-23T04:46:46;101475.47;;;11.28;76.96
19795;BME280;10057;59.402;17.866;2022-09-23T04:49:14;101474.59;;;11.27;77.16
19795;BME280;10057;59.402;17.866;2022-09-23T04:51:41;101472.94;;;11.25;77.17
19795;BME280;10057;59.402;17.866;2022-09-23T04:54:10;101474.69;;;11.24;77.19
19795;BME280;10057;59.402;17.866;2022-09-23T04:56:37;101472.03;;;11.24;77.24
19795;BME280;10057;59.402;17.866;2022-09-23T04:59:05;101470.22;;;11.26;77.17
19795;BME280;10057;59.402;17.866;2022-09-23T05:01:33;101467.50;;;11.28;77.47
19795;BME280;10057;59.402;17.866;2022-09-23T05:04:05;101472.72;;;11.31;77.54
19795;BME280;10057;59.402;17.866;2022-09-23T05:06:33;101474.50;;;11.32;77.35
19795;BME280;10057;59.402;17.866;2022-09-23T05:09:01;101470.94;;;11.31;77.51
19795;BME280;10057;59.402;17.866;2022-09-23T05:11:29;101471.78;;;11.33;77.76
19795;BME280;10057;59.402;17.866;2022-09-23T05:13:56;101474.38;;;11.35;77.71
19795;BME280;10057;59.402;17.866;2022-09-23T05:16:24;101474.28;;;11.38;77.76
19795;BME280;10057;59.402;17.866;2022-09-23T05:18:51;101476.00;;;11.41;77.78
19795;BME280;10057;59.402;17.866;2022-09-23T05:21:21;101472.41;;;11.42;77.91
19795;BME280;10057;59.402;17.866;2022-09-23T05:23:49;101481.31;;;11.41;77.70
19795;BME280;10057;59.402;17.866;2022-09-23T05:26:24;101481.22;;;11.44;77.87
19795;BME280;10057;59.402;17.866;2022-09-23T05:28:52;101482.06;;;11.46;77.80
19795;BME280;10057;59.402;17.866;2022-09-23T05:31:24;101478.47;;;11.47;77.98
19795;BME280;10057;59.402;17.866;2022-09-23T05:33:54;101481.97;;;11.49;77.92
19795;BME280;10057;59.402;17.866;2022-09-23T05:36:24;101479.19;;;11.52;77.85
19795;BME280;10057;59.402;17.866;2022-09-23T05:38:51;101476.47;;;11.55;77.92
19795;BME280;10057;59.402;17.866;2022-09-23T05:41:19;101471.88;;;11.60;77.74
19795;BME280;10057;59.402;17.866;2022-09-23T05:43:49;101481.50;;;11.64;77.79
19795;BME280;10057;59.402;17.866;2022-09-23T05:46:25;101481.41;;;11.67;78.00
19795;BME280;10057;59.402;17.866;2022-09-23T05:48:56;101487.50;;;11.71;77.85
19795;BME280;10057;59.402;17.866;2022-09-23T05:51:28;101488.28;;;11.74;77.74
19795;BME280;10057;59.402;17.866;2022-09-23T05:53:57;101494.44;;;11.76;77.40
19795;BME280;10057;59.402;17.866;2022-09-23T05:56:26;101490.78;;;11.79;77.37
19795;BME280;10057;59.402;17.866;2022-09-23T05:58:55;101485.44;;;11.80;77.52
19795;BME280;10057;59.402;17.866;2022-09-23T06:01:25;101486.25;;;11.84;77.61
19795;BME280;10057;59.402;17.866;2022-09-23T06:03:54;101485.25;;;11.88;77.39
19795;BME280;10057;59.402;17.866;2022-09-23T06:06:30;101486.00;;;11.92;77.49
19795;BME280;10057;59.402;17.866;2022-09-23T06:08:57;101486.78;;;11.95;77.30
19795;BME280;10057;59.402;17.866;2022-09-23T06:11:25;101491.16;;;11.98;77.23
19795;BME280;10057;59.402;17.866;2022-09-23T06:13:56;101486.59;;;12.01;77.40
19795;BME280;10057;59.402;17.866;2022-09-23T06:16:33;101483.00;;;12.04;77.40
19795;BME280;10057;59.402;17.866;2022-09-23T06:19:03;101484.66;;;12.06;77.40
19795;BME280;10057;59.402;17.866;2022-09-23T06:21:34;101487.28;;;12.08;77.43
19795;BME280;10057;59.402;17.866;2022-09-23T06:24:01;101481.97;;;12.08;77.04
19795;BME280;10057;59.402;17.866;2022-09-23T06:26:29;101477.34;;;12.13;77.42
19795;BME280;10057;59.402;17.866;2022-09-23T06:29:06;101486.09;;;12.17;77.33
19795;BME280;10057;59.402;17.866;2022-09-23T06:31:34;101487.88;;;12.18;77.31
19795;BME280;10057;59.402;17.866;2022-09-23T06:34:01;101485.25;;;12.16;77.17
19795;BME280;10057;59.402;17.866;2022-09-23T06:36:38;101484.34;;;12.17;77.22
19795;BME280;10057;59.402;17.866;2022-09-23T06:39:11;101486.06;;;12.18;77.37
19795;BME280;10057;59.402;17.866;2022-09-23T06:41:38;101493.97;;;12.21;77.08
19795;BME280;10057;59.402;17.866;2022-09-23T06:44:05;101493.03;;;12.22;77.18
19795;BME280;10057;59.402;17.866;2022-09-23T06:46:32;101488.53;;;12.24;76.96
19795;BME280;10057;59.402;17.866;2022-09-23T06:48:59;101493.78;;;12.27;77.06
19795;BME280;10057;59.402;17.866;2022-09-23T06:51:27;101495.41;;;12.31;77.16
19795;BME280;10057;59.402;17.866;2022-09-23T06:53:56;101493.53;;;12.33;77.28
19795;BME280;10057;59.402;17.866;2022-09-23T06:56:22;101487.25;;;12.36;77.37
19795;BME280;10057;59.402;17.866;2022-09-23T06:58:51;101483.56;;;12.40;77.28
19795;BME280;10057;59.402;17.866;2022-09-23T07:01:21;101486.09;;;12.45;77.45
19795;BME280;10057;59.402;17.866;2022-09-23T07:03:48;101494.88;;;12.47;77.04
19795;BME280;10057;59.402;17.866;2022-09-23T07:06:18;101489.47;;;12.50;77.05
19795;BME280;10057;59.402;17.866;2022-09-23T07:08:48;101492.03;;;12.53;77.03
19795;BME280;10057;59.402;17.866;2022-09-23T07:11:16;101485.84;;;12.52;76.85
19795;BME280;10057;59.402;17.866;2022-09-23T07:13:47;101494.69;;;12.53;76.68
19795;BME280;10057;59.402;17.866;2022-09-23T07:16:17;101494.59;;;12.56;76.88
19795;BME280;10057;59.402;17.866;2022-09-23T07:18:44;101494.50;;;12.59;76.71
19795;BME280;10057;59.402;17.866;2022-09-23T07:21:20;101493.53;;;12.62;77.11
19795;BME280;10057;59.402;17.866;2022-09-23T07:23:49;101492.53;;;12.64;76.92
19795;BME280;10057;59.402;17.866;2022-09-23T07:26:20;101494.28;;;12.65;76.98
19795;BME280;10057;59.402;17.866;2022-09-23T07:28:52;101489.75;;;12.67;76.93
19795;BME280;10057;59.402;17.866;2022-09-23T07:31:20;101493.34;;;12.66;76.63
19795;BME280;10057;59.402;17.866;2022-09-23T07:34:02;101489.75;;;12.67;76.61
19795;BME280;10057;59.402;17.866;2022-09-23T07:36:31;101483.47;;;12.70;76.70
19795;BME280;10057;59.402;17.866;2022-09-23T07:38:59;101491.41;;;12.71;76.71
19795;BME280;10057;59.402;17.866;2022-09-23T07:41:30;101482.50;;;12.72;76.63
19795;BME280;10057;59.402;17.866;2022-09-23T07:43:58;101479.75;;;12.75;76.86
19795;BME280;10057;59.402;17.866;2022-09-23T07:46:29;101484.03;;;12.79;76.73
19795;BME280;10057;59.402;17.866;2022-09-23T07:48:58;101484.78;;;12.83;76.34
19795;BME280;10057;59.402;17.866;2022-09-23T07:51:27;101487.34;;;12.86;76.54
19795;BME280;10057;59.402;17.866;2022-09-23T07:54:02;101486.31;;;12.90;76.23
19795;BME280;10057;59.402;17.866;2022-09-23T07:56:30;101483.56;;;12.93;76.61
19795;BME280;10057;59.402;17.866;2022-09-23T07:58:57;101497.63;;;12.97;76.66
19795;BME280;10057;59.402;17.866;2022-09-23T08:01:42;101493.09;;;12.99;76.51
19795;BME280;10057;59.402;17.866;2022-09-23T08:04:16;101485.91;;;13.02;76.56
19795;BME280;10057;59.402;17.866;2022-09-23T08:06:49;101483.16;;;13.04;76.15
19795;BME280;10057;59.402;17.866;2022-09-23T08:09:18;101481.25;;;13.08;76.29
19795;BME280;10057;59.402;17.866;2022-09-23T08:11:45;101487.34;;;13.11;76.30
19795;BME280;10057;59.402;17.866;2022-09-23T08:14:13;101485.34;;;13.18;76.03
19795;BME280;10057;59.402;17.866;2022-09-23T08:16:41;101489.72;;;13.19;75.97
19795;BME280;10057;59.402;17.866;2022-09-23T08:19:08;101484.28;;;13.22;75.99
19795;BME280;10057;59.402;17.866;2022-09-23T08:21:34;101486.84;;;13.26;76.08
19795;BME280;10057;59.402;17.866;2022-09-23T08:24:03;101488.50;;;13.29;76.20
19795;BME280;10057;59.402;17.866;2022-09-23T08:26:29;101484.75;;;13.35;75.95
19795;BME280;10057;59.402;17.866;2022-09-23T08:28:57;101482.78;;;13.40;75.79
19795;BME280;10057;59.402;17.866;2022-09-23T08:31:24;101475.53;;;13.43;75.66
19795;BME280;10057;59.402;17.866;2022-09-23T08:33:55;101475.38;;;13.48;75.58
19795;BME280;10057;59.402;17.866;2022-09-23T08:36:23;101474.31;;;13.52;75.91
19795;BME280;10057;59.402;17.866;2022-09-23T08:38:51;101475.06;;;13.56;75.67
19795;BME280;10057;59.402;17.866;2022-09-23T08:41:44;101472.22;;;13.60;75.41
19795;BME280;10057;59.402;17.866;2022-09-23T08:44:20;101473.03;;;13.62;75.41
19795;BME280;10057;59.402;17.866;2022-09-23T08:47:00;101468.47;;;13.66;75.31
19795;BME280;10057;59.402;17.866;2022-09-23T08:49:34;101464.81;;;13.68;75.42
19795;BME280;10057;59.402;17.866;2022-09-23T08:52:27;101462.94;;;13.70;75.25
19795;BME280;10057;59.402;17.866;2022-09-23T08:54:54;101461.91;;;13.74;75.56
19795;BME280;10057;59.402;17.866;2022-09-23T08:57:30;101459.94;;;13.80;75.07
19795;BME280;10057;59.402;17.866;2022-09-23T08:59:59;101454.41;;;13.84;75.15
19795;BME280;10057;59.402;17.866;2022-09-23T09:02:27;101463.16;;;13.88;75.16
19795;BME280;10057;59.402;17.866;2022-09-23T09:04:59;101461.19;;;13.93;74.93
19795;BME280;10057;59.402;17.866;2022-09-23T09:07:34;101464.53;;;13.98;75.00
19795;BME280;10057;59.402;17.866;2022-09-23T09:10:16;101465.22;;;14.03;74.62
19795;BME280;10057;59.402;17.866;2022-09-23T09:12:47;101461.50;;;14.07;74.65
19795;BME280;10057;59.402;17.866;2022-09-23T09:15:25;101455.97;;;14.12;74.41
19795;BME280;10057;59.402;17.866;2022-09-23T09:18:01;101463.81;;;14.16;74.29
19795;BME280;10057;59.402;17.866;2022-09-23T09:24:11;101455.47;;;14.24;74.06
19795;BME280;10057;59.402;17.866;2022-09-23T09:26:34;101459.69;;;14.30;74.17
19795;BME280;10057;59.402;17.866;2022-09-23T09:32:21;101454.13;;;14.36;73.54
19795;BME280;10057;59.402;17.866;2022-09-23T09:34:57;101449.63;;;14.36;73.35
19795;BME280;10057;59.402;17.866;2022-09-23T09:37:35;101453.97;;;14.39;73.61
19795;BME280;10057;59.402;17.866;2022-09-23T09:40:10;101456.50;;;14.42;73.28
19795;BME280;10057;59.402;17.866;2022-09-23T09:42:48;101448.31;;;14.46;73.21
19795;BME280;10057;59.402;17.866;2022-09-23T09:45:24;101455.28;;;14.51;73.03
19795;BME280;10057;59.402;17.866;2022-09-23T09:51:14;101451.34;;;14.59;72.93
19795;BME280;10057;59.402;17.866;2022-09-23T09:53:44;101463.59;;;14.65;72.77
19795;BME280;10057;59.402;17.866;2022-09-23T09:56:13;101459.06;;;14.67;72.61
19795;BME280;10057;59.402;17.866;2022-09-23T09:58:51;101449.03;;;14.72;72.62
19795;BME280;10057;59.402;17.866;2022-09-23T10:03:55;101444.16;;;14.82;72.33
19795;BME280;10057;59.402;17.866;2022-09-23T10:06:27;101447.47;;;14.87;72.08
19795;BME280;10057;59.402;17.866;2022-09-23T10:11:31;101446.22;;;14.96;71.79
19795;BME280;10057;59.402;17.866;2022-09-23T10:16:36;101438.81;;;15.02;71.57
19795;BME280;10057;59.402;17.866;2022-09-23T10:19:12;101432.38;;;15.06;71.38
19795;BME280;10057;59.402;17.866;2022-09-23T10:21:39;101427.84;;;15.08;71.15
19795;BME280;10057;59.402;17.866;2022-09-23T10:24:20;101433.06;;;15.11;70.70
19795;BME280;10057;59.402;17.866;2022-09-23T10:26:55;101425.69;;;15.16;70.95
19795;BME280;10057;59.402;17.866;2022-09-23T10:30:17;101422.72;;;15.23;70.90
19795;BME280;10057;59.402;17.866;2022-09-23T10:32:23;101415.31;;;15.29;70.72
19795;BME280;10057;59.402;17.866;2022-09-23T10:34:56;101417.75;;;15.34;70.53
19795;BME280;10057;59.402;17.866;2022-09-23T10:37:30;101412.13;;;15.40;70.20
19795;BME280;10057;59.402;17.866;2022-09-23T10:39:59;101407.59;;;15.42;69.89
19795;BME280;10057;59.402;17.866;2022-09-23T10:43:25;101401.00;;;15.49;69.74
19795;BME280;10057;59.402;17.866;2022-09-23T10:46:34;101400.56;;;15.58;69.73
19795;BME280;10057;59.402;17.866;2022-09-23T11:03:53;101382.47;;;16.19;66.75
19795;BME280;10057;59.402;17.866;2022-09-23T11:06:36;101388.38;;;16.25;66.33
19795;BME280;10057;59.402;17.866;2022-09-23T11:12:07;101379.81;;;16.36;65.29
19795;BME280;10057;59.402;17.866;2022-09-23T11:20:20;101377.38;;;16.49;64.04
19795;BME280;10057;59.402;17.866;2022-09-23T11:33:42;101374.28;;;16.56;62.36
19795;BME280;10057;59.402;17.866;2022-09-23T11:36:25;101371.59;;;16.56;62.14
19795;BME280;10057;59.402;17.866;2022-09-23T11:38:55;101367.22;;;16.55;61.60
19795;BME280;10057;59.402;17.866;2022-09-23T11:41:28;101368.13;;;16.54;60.93
19795;BME280;10057;59.402;17.866;2022-09-23T11:44:17;101358.53;;;16.50;60.83
19795;BME280;10057;59.402;17.866;2022-09-23T11:46:51;101365.69;;;16.50;60.62
19795;BME280;10057;59.402;17.866;2022-09-23T11:49:40;101367.53;;;16.49;60.53
19795;BME280;10057;59.402;17.866;2022-09-23T11:54:49;101368.31;;;16.51;60.47
19795;BME280;10057;59.402;17.866;2022-09-23T11:57:44;101360.19;;;16.53;60.28
19795;BME280;10057;59.402;17.866;2022-09-23T12:00:26;101359.94;;;16.57;60.18
19795;BME280;10057;59.402;17.866;2022-09-23T12:04:03;101357.91;;;16.63;59.87
19795;BME280;10057;59.402;17.866;2022-09-23T12:06:15;101361.34;;;16.65;59.64
19795;BME280;10057;59.402;17.866;2022-09-23T12:08:44;101371.03;;;16.67;59.28
19795;BME280;10057;59.402;17.866;2022-09-23T12:16:32;101358.28;;;16.72;58.72
19795;BME280;10057;59.402;17.866;2022-09-23T12:24:57;101361.69;;;16.76;58.48
19795;BME280;10057;59.402;17.866;2022-09-23T12:27:41;101344.56;;;16.78;58.60
19795;BME280;10057;59.402;17.866;2022-09-23T12:30:22;101341.72;;;16.81;58.10
19795;BME280;10057;59.402;17.866;2022-09-23T12:32:50;101348.75;;;16.84;58.30
19795;BME280;10057;59.402;17.866;2022-09-23T12:35:25;101337.25;;;16.82;57.63
19795;BME280;10057;59.402;17.866;2022-09-23T12:37:59;101338.19;;;16.81;57.41
19795;BME280;10057;59.402;17.866;2022-09-23T12:40:33;101333.63;;;16.83;57.56
19795;BME280;10057;59.402;17.866;2022-09-23T12:46:44;101326.81;;;16.93;57.74
19795;BME280;10057;59.402;17.866;2022-09-23T12:52:23;101327.78;;;16.92;57.28
19795;BME280;10057;59.402;17.866;2022-09-23T12:54:54;101329.34;;;16.96;57.37
19795;BME280;10057;59.402;17.866;2022-09-23T13:05:41;101324.56;;;17.01;56.78
19795;BME280;10057;59.402;17.866;2022-09-23T13:08:29;101321.88;;;17.01;56.74
19795;BME280;10057;59.402;17.866;2022-09-23T13:11:01;101323.63;;;17.02;56.52
19795;BME280;10057;59.402;17.866;2022-09-23T13:13:40;101315.66;;;17.01;56.09
19795;BME280;10057;59.402;17.866;2022-09-23T13:16:24;101320.94;;;17.02;55.94
19795;BME280;10057;59.402;17.866;2022-09-23T13:19:41;101310.31;;;17.01;55.67
19795;BME280;10057;59.402;17.866;2022-09-23T13:22:07;101313.84;;;17.01;55.51
19795;BME280;10057;59.402;17.866;2022-09-23T13:24:37;101307.53;;;17.02;55.47
19795;BME280;10057;59.402;17.866;2022-09-23T13:27:38;101308.50;;;17.01;55.05
19795;BME280;10057;59.402;17.866;2022-09-23T13:33:13;101305.97;;;16.98;55.13
19795;BME280;10057;59.402;17.866;2022-09-23T13:35:49;101305.13;;;16.98;55.60
19795;BME280;10057;59.402;17.866;2022-09-23T13:38:23;101293.53;;;16.97;55.30
19795;BME280;10057;59.402;17.866;2022-09-23T13:40:58;101300.88;;;16.94;55.08
19795;BME280;10057;59.402;17.866;2022-09-23T13:43:30;101290.44;;;16.89;55.06
19795;BME280;10057;59.402;17.866;2022-09-23T13:45:59;101297.84;;;16.84;55.11
19795;BME280;10057;59.402;17.866;2022-09-23T13:48:26;101288.13;;;16.81;55.32
19795;BME280;10057;59.402;17.866;2022-09-23T13:50:54;101284.59;;;16.81;55.68
19795;BME280;10057;59.402;17.866;2022-09-23T13:53:25;101295.94;;;16.86;55.85
19795;BME280;10057;59.402;17.866;2022-09-23T13:56:11;101290.44;;;16.89;55.48
19795;BME280;10057;59.402;17.866;2022-09-23T13:58:38;101288.66;;;16.88;55.84
19795;BME280;10057;59.402;17.866;2022-09-23T14:01:20;101282.28;;;16.91;55.85
19795;BME280;10057;59.402;17.866;2022-09-23T14:03:47;101280.47;;;16.91;55.89
19795;BME280;10057;59.402;17.866;2022-09-23T14:06:14;101284.91;;;16.92;55.54
19795;BME280;10057;59.402;17.866;2022-09-23T14:08:46;101273.38;;;16.90;56.08
19795;BME280;10057;59.402;17.866;2022-09-23T14:11:18;101288.50;;;16.91;56.08
19795;BME280;10057;59.402;17.866;2022-09-23T14:13:48;101282.38;;;16.89;55.39
19795;BME280;10057;59.402;17.866;2022-09-23T14:16:16;101277.19;;;16.86;55.83
19795;BME280;10057;59.402;17.866;2022-09-23T14:18:46;101276.56;;;16.81;55.69
19795;BME280;10057;59.402;17.866;2022-09-23T14:21:30;101274.16;;;16.76;55.58
19795;BME280;10057;59.402;17.866;2022-09-23T14:24:22;101275.22;;;16.72;55.63
19795;BME280;10057;59.402;17.866;2022-09-23T14:27:08;101268.38;;;16.67;55.79
19795;BME280;10057;59.402;17.866;2022-09-23T14:29:39;101279.19;;;16.65;55.81
19795;BME280;10057;59.402;17.866;2022-09-23T14:32:15;101274.88;;;16.63;56.15
19795;BME280;10057;59.402;17.866;2022-09-23T14:34:51;101270.47;;;16.62;56.11
19795;BME280;10057;59.402;17.866;2022-09-23T14:43:10;101265.13;;;16.44;55.43
19795;BME280;10057;59.402;17.866;2022-09-23T14:45:44;101269.00;;;16.39;55.39
19795;BME280;10057;59.402;17.866;2022-09-23T14:48:20;101271.91;;;16.34;55.46
19795;BME280;10057;59.402;17.866;2022-09-23T14:50:50;101266.75;;;16.31;55.44
19795;BME280;10057;59.402;17.866;2022-09-23T14:55:50;101273.03;;;16.30;55.63
19795;BME280;10057;59.402;17.866;2022-09-23T14:58:21;101279.34;;;16.29;55.19
19795;BME280;10057;59.402;17.866;2022-09-23T15:00:59;101269.56;;;16.28;55.19
19795;BME280;10057;59.402;17.866;2022-09-23T15:03:27;101262.63;;;16.24;54.92
19795;BME280;10057;59.402;17.866;2022-09-23T15:06:02;101274.38;;;16.21;54.75
19795;BME280;10057;59.402;17.866;2022-09-23T15:08:34;101272.81;;;16.17;54.73
19795;BME280;10057;59.402;17.866;2022-09-23T15:11:02;101269.41;;;16.14;54.54
19795;BME280;10057;59.402;17.866;2022-09-23T15:13:38;101272.19;;;16.12;54.60
19795;BME280;10057;59.402;17.866;2022-09-23T15:16:05;101272.34;;;16.09;54.38
19795;BME280;10057;59.402;17.866;2022-09-23T15:18:35;101273.34;;;16.06;54.39
19795;BME280;10057;59.402;17.866;2022-09-23T15:21:13;101271.78;;;16.02;54.30